Marianna, FL

9:04 AM CST on February 09, 2016 (GMT -0600)
Marianna Municipal | | Change Station
CLOSE
Current Station
Airport
Location: Marianna,
Elevation: 112 ft
Nearby Weather Stations
Active Advisory: Freeze Warning Active Notice: Local Storm Report

Elev 112 ft 30.84 °N, 85.18 °W | Updated 11 minutes ago

Clear
Clear
44 °F
Feels Like 36 °F
N
17
Wind Variable Wind from WNW
Gusts 28 mph

Today
High -- | Low -- °F
--% Chance of Precip.
Yesterday
High -- | Low -- °F
Precip. -- in
Pressure 30.04 in
Visibility 10.0 miles
Clouds Clear
Windchill 36 °F
Dew Point 22 °F
Humidity 42%
Rainfall 0.00 in
Snow Depth Not available.
6:27 AM 5:23 PM
New Moon, 1% visible
METAR KMAI 091453Z AUTO 29015G24KT 10SM CLR 07/M06 A3004 RMK AO1 SLP170 T00671056 50008
Pressure 30.04 in
Visibility 10.0 miles
Clouds Clear
Windchill 36 °F
Dew Point 22 °F
Humidity 42%
Rainfall 0.00 in
Snow Depth Not available.
6:27 AM 5:23 PM
New Moon, 1% visible
METAR KMAI 091453Z AUTO 29015G24KT 10SM CLR 07/M06 A3004 RMK AO1 SLP170 T00671056 50008

10-Day Weather Forecast

Almanac

Astronomy

Feb. 09, 2016 Rise Set
Actual Time
Civil Twilight
Nautical Twilight
Astronomical Twilight
Moon
Length of Visible Light
Length of Day
Tomorrow will be .
, % of the Moon is Illuminated

Today's Extremes

State Highs State Lows

Community

WunderPhotos

Upload Photos

1,891,616 photos uploaded!

WunderBlog® & News

Nearby

Air Quality

  Air Quality AQ Index Pollutant
Not available.

Snow Depth

Station Depth Elevation

Earthquake Activity

City Distance Mag. Time & Date
Minimum magnitude displayed is 2.5.

Coastal Water Temperatures

Place Temperature

Stations

Nearby Weather Stations

Station Location Temp. Windchill Dew Point Humidity Wind Precip. Elev Updated Type
                   

Watches & Warnings

Freeze Warning
Issued: 2:30 AM CST Feb. 9, 2016 – National Weather Service

... Freeze warning in effect from 11 PM EST /10 PM CST/ this
evening to 9 am EST /8 am CST/ Wednesday...

The National Weather Service in Tallahassee has issued a freeze
warning... which is in effect from 11 PM EST /10 PM CST/ this
evening to 9 am EST /8 am CST/ Wednesday. The freeze watch is no
longer in effect.

* Minimum temperatures... 26 to 30 degrees.

* Freeze durations... from 10 hours over southeast Alabama to
around 3 hours south of Interstate 10.

Precautionary/preparedness actions...

A freeze warning means sub-freezing temperatures are imminent or
highly likely. These conditions will kill crops and other
sensitive vegetation.